Time;durP1;ratioP1;P1;durP2;ratioP2;P2;SDS_P1;SDS_P2;PMS_P1;PMS_P2;Temp;Humidity;BMP_temperature;BMP_pressure;BME280_temperature;BME280_humidity;BME280_pressure;Samples;Min_cycle;Max_cycle;Signal;HPM_P1;HPM_P2
2022/11/25 00:01:14;;;;;;;8.98;1.15;;;;;;;8.52;100.00;100940.03;5080397;27;96792;-32
2022/11/25 00:03:41;;;;;;;4.88;0.77;;;;;;;8.58;100.00;100949.63;5080733;27;96856;-32
2022/11/25 00:06:10;;;;;;;5.47;1.70;;;;;;;8.64;100.00;100958.28;5079849;27;103021;-31
2022/11/25 00:08:37;;;;;;;5.13;1.20;;;;;;;8.68;100.00;100965.28;5080332;27;101332;-31
2022/11/25 00:11:04;;;;;;;2.53;1.00;;;;;;;8.69;100.00;100966.16;5080026;27;96662;-32
2022/11/25 00:13:31;;;;;;;2.33;0.60;;;;;;;8.69;100.00;100949.97;5080293;27;96880;-32
2022/11/25 00:16:01;;;;;;;4.32;0.70;;;;;;;8.65;100.00;100948.34;5079330;27;101132;-32
2022/11/25 00:18:27;;;;;;;2.75;0.93;;;;;;;8.67;100.00;100954.56;5078966;27;100779;-32
2022/11/25 00:20:52;;;;;;;4.00;1.20;;;;;;;8.63;99.63;100943.06;5098832;27;96497;-32
2022/11/25 00:23:17;;;;;;;5.90;2.08;;;;;;;8.62;99.39;100943.13;5098573;27;96857;-32
2022/11/25 00:25:42;;;;;;;7.25;1.98;;;;;;;8.60;99.52;100931.53;5098024;27;112525;-31
2022/11/25 00:28:08;;;;;;;8.50;2.20;;;;;;;8.59;99.21;100943.28;5098350;27;100997;-32
2022/11/25 00:30:33;;;;;;;3.70;1.52;;;;;;;8.60;99.65;100947.72;5098679;27;96448;-32
2022/11/25 00:32:58;;;;;;;3.03;1.08;;;;;;;8.57;99.88;100950.59;5099172;27;96598;-32
2022/11/25 00:35:24;;;;;;;3.42;1.25;;;;;;;8.55;100.00;100947.09;5097765;27;110469;-31
2022/11/25 00:37:49;;;;;;;2.42;1.00;;;;;;;8.56;99.89;100962.38;5098150;27;101914;-32
2022/11/25 00:40:14;;;;;;;1.45;0.98;;;;;;;8.55;100.00;100955.19;5098706;27;96459;-32
2022/11/25 00:45:23;;;;;;;1.35;0.70;;;;;;;8.56;100.00;100954.25;5102011;27;97131;-32
2022/11/25 00:47:49;;;;;;;2.38;0.98;;;;;;;8.55;100.00;100956.06;5101686;27;103477;-32
2022/11/25 00:50:14;;;;;;;5.72;1.10;;;;;;;8.55;100.00;100956.06;5102250;27;96532;-32
2022/11/25 00:52:39;;;;;;;1.23;0.65;;;;;;;8.59;99.78;100962.19;5101959;27;96897;-31
2022/11/25 00:55:05;;;;;;;2.33;1.10;;;;;;;8.60;100.00;100963.94;5101860;27;97792;-31
2022/11/25 00:57:31;;;;;;;2.25;0.88;;;;;;;8.60;100.00;100962.09;5083106;27;100780;-31
2022/11/25 00:59:56;;;;;;;2.80;1.00;;;;;;;8.63;100.00;100969.19;5102054;27;96667;-31
2022/11/25 01:02:21;;;;;;;3.50;0.68;;;;;;;8.62;100.00;100970.13;5101565;27;97674;-31
2022/11/25 01:04:47;;;;;;;1.48;0.90;;;;;;;8.63;100.00;100967.38;5100973;27;97927;-32
2022/11/25 01:07:13;;;;;;;2.28;1.10;;;;;;;8.67;100.00;100974.31;5101026;27;105436;-31
2022/11/25 01:09:38;;;;;;;1.75;1.02;;;;;;;8.65;100.00;100967.25;5083286;27;96645;-31
2022/11/25 01:12:04;;;;;;;3.45;0.93;;;;;;;8.66;100.00;100974.44;5101220;27;96861;-32
2022/11/25 01:14:30;;;;;;;1.48;0.73;;;;;;;8.67;100.00;100973.47;5082798;27;101017;-31
2022/11/25 01:16:55;;;;;;;1.90;0.77;;;;;;;8.68;100.00;100970.69;5101366;27;97800;-31
2022/11/25 01:19:20;;;;;;;2.95;1.20;;;;;;;8.73;100.00;100981.25;5101095;27;96780;-32
2022/11/25 01:21:46;;;;;;;2.28;0.95;;;;;;;8.74;100.00;100985.69;5102229;27;96617;-31
2022/11/25 01:24:15;;;;;;;1.38;0.75;;;;;;;8.76;100.00;100981.09;5101435;27;98006;-31
2022/11/25 01:26:40;;;;;;;2.33;0.80;;;;;;;8.74;100.00;100977.59;5100824;27;97384;-31
2022/11/25 01:29:11;;;;;;;1.98;0.82;;;;;;;8.76;100.00;100970.28;5101133;27;96879;-32
2022/11/25 01:31:36;;;;;;;8.07;0.98;;;;;;;8.80;100.00;100985.38;5082977;27;96706;-31
2022/11/25 01:34:04;;;;;;;0.73;0.68;;;;;;;8.81;100.00;100980.84;5100929;27;99261;-31
2022/11/25 01:36:30;;;;;;;4.18;1.13;;;;;;;8.82;100.00;100988.88;5082301;27;100527;-31
2022/11/25 01:38:58;;;;;;;1.15;0.52;;;;;;;8.81;100.00;100972.75;5101100;27;96649;-32
2022/11/25 01:41:29;;;;;;;2.17;0.73;;;;;;;8.82;100.00;100969.09;5082980;27;96825;-32
2022/11/25 01:44:18;;;;;;;2.20;0.40;;;;;;;8.83;100.00;100954.66;5082242;27;100797;-32
2022/11/25 01:46:57;;;;;;;2.58;0.57;;;;;;;8.82;100.00;100966.38;5101052;27;99096;-31
2022/11/25 01:49:29;;;;;;;6.53;1.05;;;;;;;8.83;100.00;100985.22;5100983;27;96741;-32
2022/11/25 01:52:13;;;;;;;0.98;0.60;;;;;;;8.84;100.00;100984.28;5082161;27;96811;-32
2022/11/25 01:55:11;;;;;;;1.02;0.43;;;;;;;8.85;100.00;100977.91;5100251;27;99578;-31
2022/11/25 01:57:47;;;;;;;1.42;0.65;;;;;;;8.84;100.00;100976.19;5100923;27;98109;-31
2022/11/25 02:00:13;;;;;;;1.13;0.30;;;;;;;8.85;100.00;100959.00;5101385;27;96498;-32
2022/11/25 02:02:38;;;;;;;1.35;0.88;;;;;;;8.83;100.00;100976.25;5100981;27;96833;-31
2022/11/25 02:05:08;;;;;;;1.70;0.60;;;;;;;8.84;100.00;100984.28;5100948;27;97383;-32
2022/11/25 02:07:36;;;;;;;1.33;0.60;;;;;;;8.86;100.00;100986.88;5100501;27;97173;-31
2022/11/25 02:10:07;;;;;;;1.02;0.20;;;;;;;8.87;100.00;100980.53;5082231;27;96696;-31
2022/11/25 02:12:35;;;;;;;4.97;0.90;;;;;;;8.85;100.00;100979.75;5082631;27;96936;-31
2022/11/25 02:15:01;;;;;;;1.05;0.57;;;;;;;8.84;100.00;100968.06;5081678;27;100825;-32
2022/11/25 02:17:27;;;;;;;7.15;1.13;;;;;;;8.84;100.00;100962.69;5100543;27;97980;-32
2022/11/25 02:20:02;;;;;;;1.33;0.52;;;;;;;8.85;100.00;100969.81;5099264;27;96846;-31
2022/11/25 02:22:44;;;;;;;0.93;0.35;;;;;;;8.81;100.00;100976.31;5082174;27;97108;-31
2022/11/25 02:25:17;;;;;;;0.05;0.05;;;;;;;8.84;100.00;100984.28;5100226;27;98109;-32
2022/11/25 02:27:48;;;;;;;0.85;0.40;;;;;;;8.81;100.00;100976.31;5100276;27;97861;-32
2022/11/25 02:30:13;;;;;;;3.03;0.85;;;;;;;8.79;100.00;100980.91;5082019;27;96624;-31
2022/11/25 02:32:44;;;;;;;2.83;0.60;;;;;;;8.80;100.00;100979.97;5100774;27;96761;-31
2022/11/25 02:35:32;;;;;;;1.27;0.60;;;;;;;8.79;100.00;100988.16;5081242;27;101333;-32
2022/11/25 02:38:09;;;;;;;3.97;0.28;;;;;;;8.78;100.00;100981.03;5100374;27;98651;-32
2022/11/25 02:40:40;;;;;;;0.35;0.25;;;;;;;8.77;100.00;100981.97;5100339;27;96884;-31
2022/11/25 02:43:06;;;;;;;0.77;0.25;;;;;;;8.75;100.00;100984.75;5081922;27;96816;-31
2022/11/25 02:45:48;;;;;;;0.30;0.15;;;;;;;8.71;100.00;100973.22;5099569;27;97966;-32
2022/11/25 02:48:13;;;;;;;0.55;0.25;;;;;;;8.70;100.00;100974.19;5081311;27;103288;-32
2022/11/25 02:50:39;;;;;;;0.10;0.05;;;;;;;8.71;100.00;100969.66;5100082;27;96522;-31
2022/11/25 02:53:04;;;;;;;1.25;0.50;;;;;;;8.69;100.00;100961.63;5100355;27;96528;-31
2022/11/25 02:55:30;;;;;;;0.70;0.35;;;;;;;8.68;100.00;100969.81;5099408;27;99355;-31
2022/11/25 02:57:55;;;;;;;0.52;0.32;;;;;;;8.70;100.00;100974.19;5099848;27;98067;-31
2022/11/25 03:00:21;;;;;;;1.75;0.50;;;;;;;8.67;100.00;100974.31;5100035;27;96634;-32
2022/11/25 03:02:46;;;;;;;3.50;0.70;;;;;;;8.67;100.00;100970.75;5099704;27;96883;-32
2022/11/25 03:05:12;;;;;;;6.82;0.50;;;;;;;8.66;100.00;100974.44;5099644;27;98514;-31
2022/11/25 03:07:38;;;;;;;2.30;0.32;;;;;;;8.69;100.00;100971.56;5099550;27;97525;-31
2022/11/25 03:10:04;;;;;;;0.30;0.30;;;;;;;8.68;100.00;100988.72;5099623;27;96634;-32
2022/11/25 03:12:29;;;;;;;0.88;0.40;;;;;;;8.66;100.00;100996.03;5081090;27;96857;-32
2022/11/25 03:14:54;;;;;;;0.28;0.20;;;;;;;8.68;99.84;101010.34;5099051;27;98917;-32
2022/11/25 03:17:20;;;;;;;1.33;0.50;;;;;;;8.66;99.96;101023.03;5099535;27;97966;-31
2022/11/25 03:19:45;;;;;;;5.15;0.40;;;;;;;8.63;100.00;101015.97;5099347;27;96770;-31
2022/11/25 03:22:10;;;;;;;2.03;0.57;;;;;;;8.61;100.00;101014.28;5099884;27;96814;-31
2022/11/25 03:24:36;;;;;;;5.90;0.50;;;;;;;8.60;100.00;101012.53;5098956;27;99385;-31
2022/11/25 03:27:01;;;;;;;1.15;0.45;;;;;;;8.63;100.00;101028.59;5099621;27;97865;-31
2022/11/25 03:29:27;;;;;;;0.73;0.30;;;;;;;8.62;99.81;101025.00;5099612;27;96575;-32
2022/11/25 03:31:52;;;;;;;0.43;0.20;;;;;;;8.61;99.83;101027.81;5099872;27;96834;-31
2022/11/25 03:34:17;;;;;;;2.42;0.45;;;;;;;8.59;99.67;101033.25;5098664;27;97348;-32
2022/11/25 03:36:43;;;;;;;0.20;0.20;;;;;;;8.60;99.59;101045.78;5080356;27;106856;-31
2022/11/25 03:39:08;;;;;;;0.70;0.20;;;;;;;8.56;99.59;101052.31;5099616;27;96607;-31
2022/11/25 03:41:33;;;;;;;0.57;0.40;;;;;;;8.59;99.47;101051.28;5099388;27;96465;-31
2022/11/25 03:43:58;;;;;;;0.40;0.20;;;;;;;8.56;99.56;101056.84;5098753;27;98956;-32
2022/11/25 03:46:24;;;;;;;0.32;0.22;;;;;;;8.54;99.34;101054.22;5099147;27;97842;-31
2022/11/25 03:48:49;;;;;;;0.52;0.20;;;;;;;8.50;98.95;101055.31;5099556;27;96456;-31
2022/11/25 03:51:14;;;;;;;0.30;0.10;;;;;;;8.51;98.92;101062.50;5099526;27;96755;-32
2022/11/25 03:53:40;;;;;;;0.15;0.00;;;;;;;8.47;98.98;101064.44;5098440;27;114246;-31
2022/11/25 03:56:05;;;;;;;0.38;0.00;;;;;;;8.45;98.81;101066.34;5098828;27;97296;-31
2022/11/25 03:58:31;;;;;;;4.40;0.10;;;;;;;8.43;98.59;101068.22;5098527;27;96442;-31
2022/11/25 04:01:00;;;;;;;0.20;0.10;;;;;;;8.43;98.46;101070.06;5098824;27;96697;-32
2022/11/25 04:03:26;;;;;;;0.20;0.20;;;;;;;8.40;98.57;101062.13;5079959;27;101251;-32
2022/11/25 04:05:52;;;;;;;0.10;0.10;;;;;;;8.37;98.48;101060.44;5079927;27;102064;-31
2022/11/25 04:08:17;;;;;;;2.03;0.60;;;;;;;8.33;98.45;101058.81;5099139;27;97101;-31
2022/11/25 04:10:42;;;;;;;0.73;0.45;;;;;;;8.35;98.64;101072.25;5098823;27;96818;-32
2022/11/25 04:13:08;;;;;;;0.30;0.20;;;;;;;8.33;98.67;101069.63;5097765;27;115949;-32
2022/11/25 04:15:33;;;;;;;1.60;0.55;;;;;;;8.31;98.41;101074.22;5098850;27;97278;-32
2022/11/25 04:17:58;;;;;;;0.75;0.40;;;;;;;8.27;98.69;101076.19;5098493;27;96909;-33
2022/11/25 04:20:24;;;;;;;0.57;0.22;;;;;;;8.27;98.66;101076.19;5099113;27;96581;-31
2022/11/25 04:22:49;;;;;;;0.57;0.40;;;;;;;8.27;98.68;101076.19;5098133;27;98042;-32
2022/11/25 04:25:15;;;;;;;1.15;0.45;;;;;;;8.26;98.95;101076.25;5098454;27;97786;-31
2022/11/25 04:27:40;;;;;;;0.88;0.65;;;;;;;8.29;98.79;101084.19;5098732;27;96567;-32
2022/11/25 04:30:06;;;;;;;2.15;0.55;;;;;;;8.30;98.72;101085.97;5099024;27;97991;-31
2022/11/25 04:32:32;;;;;;;1.38;0.32;;;;;;;8.24;98.67;101081.72;5079728;27;102093;-32
2022/11/25 04:34:57;;;;;;;1.50;0.57;;;;;;;8.21;98.85;101089.97;5098427;27;98063;-31
2022/11/25 04:37:22;;;;;;;0.45;0.40;;;;;;;8.20;98.87;101096.31;5098374;27;96605;-31
2022/11/25 04:39:48;;;;;;;2.67;0.70;;;;;;;8.18;99.00;101116.25;5098775;27;96772;-32
2022/11/25 04:42:31;;;;;;;4.15;0.50;;;;;;;8.18;98.98;101113.53;5098406;27;97756;-32
2022/11/25 04:44:57;;;;;;;1.20;0.38;;;;;;;8.16;98.74;101100.13;5098366;27;97784;-32
2022/11/25 04:47:22;;;;;;;0.43;0.40;;;;;;;8.18;98.99;101105.44;5098374;27;96652;-31
2022/11/25 04:49:48;;;;;;;1.25;0.47;;;;;;;8.18;99.16;101121.63;5079964;27;96726;-31
2022/11/25 04:52:13;;;;;;;1.02;0.50;;;;;;;8.18;98.99;101125.19;5098259;27;97881;-31
2022/11/25 04:54:38;;;;;;;0.77;0.40;;;;;;;8.16;98.93;101120.81;5098150;27;97315;-32
2022/11/25 04:57:04;;;;;;;1.67;0.32;;;;;;;8.16;99.17;101121.69;5098215;27;96718;-31
2022/11/25 04:59:38;;;;;;;2.58;0.50;;;;;;;8.14;99.21;101122.72;5098609;27;96736;-32
2022/11/25 05:02:05;;;;;;;0.43;0.30;;;;;;;8.15;99.22;101133.44;5079358;27;100801;-31
2022/11/25 05:04:30;;;;;;;0.40;0.22;;;;;;;8.15;99.29;101132.56;5079703;27;101188;-32
2022/11/25 05:06:56;;;;;;;0.52;0.25;;;;;;;8.18;99.18;101143.22;5098168;27;96518;-31
2022/11/25 05:09:21;;;;;;;1.10;0.52;;;;;;;8.20;99.11;101135.91;5098233;27;96768;-32
2022/11/25 05:11:46;;;;;;;1.73;0.15;;;;;;;8.19;98.97;101137.72;5097232;27;97918;-32
2022/11/25 05:14:12;;;;;;;0.85;0.30;;;;;;;8.19;98.89;101142.25;5098045;27;97837;-32
2022/11/25 05:16:37;;;;;;;0.65;0.45;;;;;;;8.19;98.98;101137.72;5098509;27;96603;-31
2022/11/25 05:19:03;;;;;;;3.50;0.60;;;;;;;8.16;98.82;101132.50;5097380;27;96798;-32
2022/11/25 05:21:28;;;;;;;1.23;0.40;;;;;;;8.17;98.70;101142.31;5097938;27;97244;-31
2022/11/25 05:23:54;;;;;;;0.98;0.28;;;;;;;8.18;98.86;101140.53;5097585;27;102012;-32
2022/11/25 05:26:19;;;;;;;1.17;0.50;;;;;;;8.12;98.79;101140.78;5099287;27;96587;-32
2022/11/25 05:28:45;;;;;;;1.05;0.57;;;;;;;8.12;98.81;101154.28;5102248;27;96716;-32
2022/11/25 05:31:10;;;;;;;0.30;0.20;;;;;;;8.11;98.65;101155.25;5101237;27;97422;-32
2022/11/25 05:33:35;;;;;;;1.50;0.50;;;;;;;8.15;98.66;101159.53;5101263;27;97805;-31
2022/11/25 05:36:02;;;;;;;1.20;0.60;;;;;;;8.14;98.67;101163.19;5101233;27;96442;-32
2022/11/25 05:38:28;;;;;;;0.38;0.22;;;;;;;8.10;98.67;101175.94;5082676;27;96868;-33
2022/11/25 05:41:00;;;;;;;0.55;0.30;;;;;;;8.07;98.67;101176.94;5100656;27;98754;-31
2022/11/25 05:43:25;;;;;;;2.80;0.82;;;;;;;8.04;98.80;101170.84;5082332;27;101302;-32
2022/11/25 05:45:51;;;;;;;1.00;0.38;;;;;;;8.04;98.75;101173.53;5101465;27;96452;-31
2022/11/25 05:48:16;;;;;;;0.57;0.28;;;;;;;8.05;98.82;101186.06;5100845;27;98699;-31
2022/11/25 05:50:41;;;;;;;1.10;0.30;;;;;;;8.01;98.61;101176.38;5100902;27;97921;-31
2022/11/25 05:53:07;;;;;;;0.55;0.40;;;;;;;7.99;98.86;101179.13;5101235;27;96676;-32
2022/11/25 05:55:32;;;;;;;0.25;0.20;;;;;;;8.00;98.61;101193.50;5101365;27;96600;-32
2022/11/25 05:57:58;;;;;;;3.33;0.38;;;;;;;7.96;98.56;101184.69;5101240;27;96730;-31
2022/11/25 06:00:24;;;;;;;1.33;0.55;;;;;;;7.95;98.83;101179.34;5081395;27;98881;-31
2022/11/25 06:02:50;;;;;;;1.48;0.52;;;;;;;7.93;98.72;101184.78;5082052;27;101311;-31
2022/11/25 06:05:16;;;;;;;0.55;0.32;;;;;;;7.93;98.64;101184.78;5082517;27;96449;-31
2022/11/25 06:07:41;;;;;;;0.82;0.43;;;;;;;7.88;98.78;101187.69;5082405;27;96850;-32
2022/11/25 06:10:07;;;;;;;1.75;0.30;;;;;;;7.89;98.76;101194.00;5100191;27;99595;-32
2022/11/25 06:12:33;;;;;;;0.35;0.20;;;;;;;7.87;98.86;101196.75;5081373;27;101088;-31
2022/11/25 06:14:58;;;;;;;3.17;0.65;;;;;;;7.88;98.85;101211.09;5101120;27;96541;-31
2022/11/25 06:17:23;;;;;;;1.35;0.43;;;;;;;7.85;98.29;101208.56;5100829;27;96801;-32
2022/11/25 06:19:49;;;;;;;1.17;0.20;;;;;;;7.81;98.72;101207.78;5099830;27;99436;-31
2022/11/25 06:22:14;;;;;;;1.17;0.52;;;;;;;7.80;98.87;101200.66;5100221;27;97216;-32
2022/11/25 06:24:40;;;;;;;2.10;0.60;;;;;;;7.80;98.72;101210.59;5100756;27;96624;-32
2022/11/25 06:27:05;;;;;;;1.00;0.40;;;;;;;7.75;98.79;101202.69;5100839;27;96717;-32
2022/11/25 06:29:30;;;;;;;0.22;0.20;;;;;;;7.76;98.84;101214.34;5100219;27;97965;-31
2022/11/25 06:31:56;;;;;;;1.00;0.40;;;;;;;7.77;98.85;101216.09;5100131;27;97749;-31
2022/11/25 06:34:21;;;;;;;0.80;0.55;;;;;;;7.73;98.71;101201.88;5100752;27;96549;-31
2022/11/25 06:36:48;;;;;;;0.55;0.28;;;;;;;7.73;98.48;101218.06;5100324;27;96809;-32
2022/11/25 06:39:13;;;;;;;0.90;0.40;;;;;;;7.70;98.56;101218.19;5081169;27;101360;-31
2022/11/25 06:41:39;;;;;;;0.60;0.45;;;;;;;7.70;98.45;101222.69;5100412;27;97732;-32
2022/11/25 06:44:04;;;;;;;1.15;0.70;;;;;;;7.71;98.65;101232.56;5100637;27;96525;-31
2022/11/25 06:46:30;;;;;;;1.75;0.50;;;;;;;7.72;98.60;101234.28;5100451;27;96722;-32
2022/11/25 06:48:59;;;;;;;1.48;0.55;;;;;;;7.68;98.32;101227.31;5099496;27;97893;-31
2022/11/25 06:51:25;;;;;;;1.20;0.65;;;;;;;7.66;98.43;101239.00;5081153;27;100992;-32
2022/11/25 06:53:51;;;;;;;1.75;0.93;;;;;;;7.64;98.37;101238.19;5081464;27;96545;-31
2022/11/25 06:56:20;;;;;;;0.85;0.52;;;;;;;7.63;98.49;101244.53;5081606;27;96785;-32
2022/11/25 06:58:47;;;;;;;1.55;0.57;;;;;;;7.64;98.56;101256.19;5081023;27;101291;-31
2022/11/25 07:01:12;;;;;;;1.33;0.50;;;;;;;7.62;98.32;101258.06;5080906;27;101049;-32
2022/11/25 07:03:38;;;;;;;0.38;0.38;;;;;;;7.58;98.47;101259.13;5100141;27;97404;-31
2022/11/25 07:06:03;;;;;;;0.98;0.60;;;;;;;7.54;98.44;101261.09;5100447;27;96734;-31
2022/11/25 07:08:29;;;;;;;1.17;0.65;;;;;;;7.56;98.52;101264.63;5080875;27;102283;-31
2022/11/25 07:10:55;;;;;;;1.02;0.55;;;;;;;7.56;98.69;101263.75;5099229;27;97884;-32
2022/11/25 07:13:20;;;;;;;2.40;0.75;;;;;;;7.55;98.30;101264.66;5099606;27;96453;-32
2022/11/25 07:15:46;;;;;;;1.65;0.60;;;;;;;7.56;98.65;101269.13;5099917;27;96789;-31
2022/11/25 07:18:12;;;;;;;3.72;0.52;;;;;;;7.53;98.44;101277.34;5079841;27;100714;-32
2022/11/25 07:20:38;;;;;;;0.55;0.40;;;;;;;7.54;98.26;101279.09;5099036;27;97846;-32
2022/11/25 07:23:04;;;;;;;1.27;0.70;;;;;;;7.52;98.52;101281.84;5081267;27;96540;-32
2022/11/25 07:25:29;;;;;;;3.33;0.52;;;;;;;7.55;98.40;101280.84;5099708;27;96810;-31
2022/11/25 07:27:54;;;;;;;1.80;0.70;;;;;;;7.53;98.52;101283.63;5099302;27;98289;-31
2022/11/25 07:30:20;;;;;;;1.30;0.55;;;;;;;7.53;98.16;101304.28;5099721;27;97766;-31
2022/11/25 07:32:45;;;;;;;5.85;0.52;;;;;;;7.53;98.09;101302.50;5099639;27;96546;-31
2022/11/25 07:35:11;;;;;;;2.17;0.70;;;;;;;7.53;98.19;101310.59;5099279;27;96833;-32
2022/11/25 07:37:36;;;;;;;1.13;0.25;;;;;;;7.52;98.21;101314.19;5098707;27;98051;-31
2022/11/25 07:40:01;;;;;;;2.25;0.55;;;;;;;7.51;98.33;101316.94;5099053;27;98099;-31
2022/11/25 07:42:27;;;;;;;2.72;0.45;;;;;;;7.48;98.33;101317.09;5099643;27;96677;-31
2022/11/25 07:44:52;;;;;;;2.42;0.77;;;;;;;7.49;98.28;101324.25;5099355;27;96852;-31
2022/11/25 07:47:17;;;;;;;4.38;0.68;;;;;;;7.48;98.24;101326.03;5098781;27;99376;-31
2022/11/25 07:49:42;;;;;;;1.35;0.60;;;;;;;7.53;97.89;101342.03;5097686;27;113114;-32
2022/11/25 07:52:08;;;;;;;0.35;0.22;;;;;;;7.52;98.22;101349.25;5099274;27;96611;-31
2022/11/25 07:54:34;;;;;;;1.90;0.52;;;;;;;7.52;97.81;101349.25;5099843;27;96755;-32
2022/11/25 07:56:59;;;;;;;1.92;0.63;;;;;;;7.50;97.86;101351.13;5098765;27;97823;-31
2022/11/25 07:59:24;;;;;;;1.15;0.50;;;;;;;7.49;97.88;101346.69;5098342;27;110581;-31
2022/11/25 08:01:52;;;;;;;0.50;0.15;;;;;;;7.52;98.07;101354.63;5098843;27;96509;-31
2022/11/25 08:04:18;;;;;;;1.67;0.30;;;;;;;7.55;97.79;101359.88;5080447;27;96815;-32
2022/11/25 08:06:45;;;;;;;11.57;1.00;;;;;;;7.56;97.81;101364.38;5079875;27;100857;-31
2022/11/25 08:09:14;;;;;;;2.45;0.35;;;;;;;7.56;97.94;101367.06;5080030;27;100968;-32
2022/11/25 08:11:40;;;;;;;0.60;0.45;;;;;;;7.55;97.61;101373.38;5080196;27;96842;-31
2022/11/25 08:14:09;;;;;;;2.55;0.52;;;;;;;7.55;97.76;101370.69;5080466;27;96821;-31
2022/11/25 08:16:34;;;;;;;0.90;0.20;;;;;;;7.55;97.57;101376.06;5079754;27;100922;-31
2022/11/25 08:19:03;;;;;;;0.98;0.40;;;;;;;7.56;97.73;101375.16;5098024;27;97838;-32
2022/11/25 08:21:28;;;;;;;1.10;0.47;;;;;;;7.57;97.60;101374.19;5080283;27;96765;-31
2022/11/25 08:23:55;;;;;;;0.93;0.45;;;;;;;7.61;97.76;101381.22;5098770;27;96750;-32
2022/11/25 08:26:24;;;;;;;0.52;0.25;;;;;;;7.62;97.54;101391.06;5079328;27;101171;-31
2022/11/25 08:28:50;;;;;;;0.28;0.25;;;;;;;7.61;97.61;101389.31;5079579;27;100684;-31
2022/11/25 08:31:22;;;;;;;0.95;0.60;;;;;;;7.64;97.34;101385.59;5098923;27;96632;-31
2022/11/25 08:33:48;;;;;;;0.82;0.40;;;;;;;7.68;97.39;101402.56;5080278;27;96823;-31
2022/11/25 08:36:14;;;;;;;2.50;0.68;;;;;;;7.70;97.31;101408.75;5079527;27;101032;-32
2022/11/25 08:38:41;;;;;;;1.10;0.40;;;;;;;7.74;97.24;101410.38;5079468;27;100746;-31
2022/11/25 08:41:16;;;;;;;4.65;0.38;;;;;;;7.74;97.24;101410.38;5079759;27;96622;-31
2022/11/25 08:43:42;;;;;;;0.93;0.25;;;;;;;7.81;97.14;101425.38;5080214;27;96763;-31
2022/11/25 08:46:14;;;;;;;4.53;0.80;;;;;;;7.81;97.16;101411.88;5097622;27;99323;-31
2022/11/25 08:48:39;;;;;;;0.38;0.22;;;;;;;7.84;97.22;101423.44;5079354;27;100851;-32
2022/11/25 08:51:15;;;;;;;2.72;0.65;;;;;;;7.85;96.92;101429.69;5098257;27;96699;-32
2022/11/25 08:53:41;;;;;;;0.80;0.38;;;;;;;7.86;96.93;101428.75;5079981;27;96883;-31
2022/11/25 08:56:07;;;;;;;2.65;0.85;;;;;;;7.89;96.97;101431.34;5097755;27;99623;-31
2022/11/25 08:58:33;;;;;;;0.55;0.45;;;;;;;7.93;97.03;101432.06;5097935;27;97902;-32
2022/11/25 09:00:59;;;;;;;1.65;0.17;;;;;;;7.93;97.02;101432.94;5080107;27;96660;-31
2022/11/25 09:03:24;;;;;;;4.07;0.38;;;;;;;7.96;96.79;101435.53;5102265;27;96775;-31
2022/11/25 09:05:51;;;;;;;2.33;0.57;;;;;;;7.99;96.91;101443.50;5101335;27;99767;-31
2022/11/25 09:08:17;;;;;;;0.68;0.40;;;;;;;8.00;96.71;101445.25;5083055;27;103002;-32
2022/11/25 09:10:42;;;;;;;0.40;0.40;;;;;;;8.06;96.56;101454.91;5102104;27;96434;-31
2022/11/25 09:13:09;;;;;;;1.92;0.60;;;;;;;8.09;96.50;101452.97;5101846;27;96862;-32
2022/11/25 09:15:35;;;;;;;0.20;0.17;;;;;;;8.08;96.62;101456.63;5100835;27;99785;-31
2022/11/25 09:18:06;;;;;;;5.15;0.85;;;;;;;8.11;96.54;101452.91;5100533;27;98604;-32
2022/11/25 09:20:32;;;;;;;3.97;0.70;;;;;;;8.15;96.22;101459.03;5101600;27;96719;-31
2022/11/25 09:22:59;;;;;;;1.00;0.55;;;;;;;8.18;96.25;101464.34;5101546;27;96856;-31
2022/11/25 09:25:25;;;;;;;0.95;0.50;;;;;;;8.27;96.45;101469.31;5082409;27;100918;-31
2022/11/25 09:27:50;;;;;;;1.88;0.43;;;;;;;8.33;96.33;101477.16;5101195;27;97885;-32
2022/11/25 09:30:15;;;;;;;2.35;0.65;;;;;;;8.41;96.17;101482.28;5101168;27;96553;-31
2022/11/25 09:32:41;;;;;;;0.55;0.45;;;;;;;8.43;96.05;101481.25;5102151;27;96765;-31
2022/11/25 09:35:06;;;;;;;0.77;0.57;;;;;;;8.50;95.82;101480.06;5100961;27;99367;-31
2022/11/25 09:37:32;;;;;;;0.85;0.38;;;;;;;8.58;95.74;101503.16;5100814;27;98722;-31
2022/11/25 09:39:57;;;;;;;0.47;0.45;;;;;;;8.65;95.64;101502.84;5101258;27;96583;-31
2022/11/25 09:49:06;;;;;;;1.05;0.47;;;;;;;8.93;95.06;101515.13;5100804;27;97024;-32
2022/11/25 09:51:51;;;;;;;0.70;0.30;;;;;;;8.97;94.80;101507.78;5100351;27;96510;-31
2022/11/25 09:54:27;;;;;;;0.85;0.30;;;;;;;9.04;94.44;101517.38;5082754;27;96744;-31
2022/11/25 09:57:17;;;;;;;0.90;0.43;;;;;;;9.09;94.43;101523.44;5081891;27;101050;-32
2022/11/25 09:59:53;;;;;;;8.10;0.65;;;;;;;9.17;94.03;101517.69;5101372;27;97255;-32
2022/11/25 10:02:33;;;;;;;1.55;0.50;;;;;;;9.22;93.93;101523.75;5082681;27;96585;-32
2022/11/25 10:05:11;;;;;;;4.68;0.35;;;;;;;9.28;93.57;101529.78;5101310;27;96499;-31
2022/11/25 10:07:42;;;;;;;2.10;0.63;;;;;;;9.36;93.40;101533.00;5081386;27;100908;-32
2022/11/25 10:10:24;;;;;;;1.67;0.38;;;;;;;9.43;93.35;101535.44;5081734;27;101204;-32
2022/11/25 10:12:52;;;;;;;0.65;0.38;;;;;;;9.50;93.25;101539.63;5081801;27;96661;-32
2022/11/25 10:15:33;;;;;;;2.00;0.60;;;;;;;9.60;92.66;101538.22;5082427;27;96872;-31
2022/11/25 10:18:28;;;;;;;3.22;0.60;;;;;;;9.73;92.85;101538.56;5081155;27;101354;-31
2022/11/25 10:20:54;;;;;;;0.38;0.20;;;;;;;9.81;92.38;101544.47;5081435;27;100965;-32
2022/11/25 10:23:33;;;;;;;0.85;0.25;;;;;;;9.93;92.61;101548.44;5100865;27;96419;-32
2022/11/25 10:26:09;;;;;;;0.80;0.47;;;;;;;9.98;91.34;101551.78;5082531;27;96667;-32
2022/11/25 10:28:35;;;;;;;5.13;0.88;;;;;;;10.05;91.31;101552.38;5081689;27;101186;-32
2022/11/25 10:31:18;;;;;;;0.40;0.40;;;;;;;10.19;91.08;101548.03;5081404;27;100913;-31
2022/11/25 10:33:44;;;;;;;1.45;0.68;;;;;;;10.31;90.70;101553.84;5081384;27;96595;-32
2022/11/25 10:36:18;;;;;;;4.78;0.55;;;;;;;10.38;90.25;101558.00;5100603;27;96820;-32
2022/11/25 10:39:01;;;;;;;0.40;0.30;;;;;;;10.49;90.13;101565.63;5099628;27;99287;-32
2022/11/25 10:41:49;;;;;;;2.95;0.50;;;;;;;10.54;90.18;101571.69;5081263;27;100848;-32
2022/11/25 10:44:35;;;;;;;2.95;0.68;;;;;;;10.54;89.80;101575.25;5100206;27;97921;-32
2022/11/25 10:47:13;;;;;;;3.58;0.47;;;;;;;10.55;89.96;101574.28;5100401;27;96505;-32
2022/11/25 10:50:00;;;;;;;3.97;0.52;;;;;;;10.62;89.93;101583.88;5081245;27;99610;-32
2022/11/25 10:52:31;;;;;;;4.43;0.52;;;;;;;10.64;89.58;101572.97;5100160;27;97376;-32
2022/11/25 10:55:15;;;;;;;1.70;0.60;;;;;;;10.69;89.36;101581.72;5081730;27;96715;-31
2022/11/25 10:57:41;;;;;;;2.95;0.60;;;;;;;10.78;88.92;101592.13;5081565;27;96711;-32
2022/11/25 11:00:24;;;;;;;0.70;0.43;;;;;;;10.80;87.95;101597.47;5080566;27;98780;-32
2022/11/25 11:02:49;;;;;;;2.35;0.63;;;;;;;10.83;88.16;101594.59;5080891;27;101029;-31
2022/11/25 11:05:20;;;;;;;2.10;0.68;;;;;;;10.87;88.11;101593.50;5100136;27;96571;-32
2022/11/25 11:07:46;;;;;;;3.40;0.98;;;;;;;10.93;87.08;101605.84;5081420;27;96699;-32
2022/11/25 11:10:16;;;;;;;4.60;0.80;;;;;;;11.02;88.25;101611.66;5099471;27;99828;-31
2022/11/25 11:12:57;;;;;;;1.38;0.47;;;;;;;11.08;87.64;101628.56;5080774;27;101040;-32
2022/11/25 11:15:31;;;;;;;2.17;0.60;;;;;;;11.05;86.40;101622.34;5100100;27;96547;-32
2022/11/25 11:17:59;;;;;;;2.92;0.63;;;;;;;11.11;87.21;101625.69;5100085;27;96495;-31
2022/11/25 11:20:28;;;;;;;5.80;0.63;;;;;;;11.12;87.08;101635.59;5080558;27;101349;-32
2022/11/25 11:23:00;;;;;;;0.68;0.52;;;;;;;11.16;86.92;101643.50;5080482;27;100948;-32
2022/11/25 11:26:02;;;;;;;0.80;0.50;;;;;;;11.20;86.57;101630.66;5079763;27;96479;-32
2022/11/25 11:28:37;;;;;;;6.93;0.55;;;;;;;11.16;87.32;101643.50;5074563;27;96820;-33
2022/11/25 11:31:16;;;;;;;5.80;0.47;;;;;;;11.05;87.58;101649.47;5080460;27;100964;-32
2022/11/25 11:33:56;;;;;;;2.90;0.52;;;;;;;10.96;87.88;101658.06;5080669;27;101244;-31
2022/11/25 11:36:33;;;;;;;1.75;0.60;;;;;;;10.84;87.82;101656.88;5080849;27;96685;-32
2022/11/25 11:39:17;;;;;;;1.25;0.47;;;;;;;10.80;87.92;101657.09;5080831;27;96703;-32
2022/11/25 11:41:51;;;;;;;1.40;0.50;;;;;;;10.77;88.07;101657.22;5099131;27;97332;-31
2022/11/25 11:44:55;;;;;;;3.75;0.63;;;;;;;10.71;88.65;101660.25;5080691;27;100919;-31